sensor_id;sensor_type;location;lat;lon;timestamp;temperature;humidity
62581;DHT22;48640;48.770;9.148;2023-03-05T00:00:40;4.90;88.30
62581;DHT22;48640;48.770;9.148;2023-03-05T00:03:06;4.90;88.10
62581;DHT22;48640;48.770;9.148;2023-03-05T00:05:33;4.90;88.30
62581;DHT22;48640;48.770;9.148;2023-03-05T00:08:00;4.90;88.30
62581;DHT22;48640;48.770;9.148;2023-03-05T00:10:27;4.80;88.50
62581;DHT22;48640;48.770;9.148;2023-03-05T00:12:55;4.80;88.90
62581;DHT22;48640;48.770;9.148;2023-03-05T00:15:22;4.80;89.00
62581;DHT22;48640;48.770;9.148;2023-03-05T00:17:49;4.80;88.90
62581;DHT22;48640;48.770;9.148;2023-03-05T00:20:16;4.80;89.00
62581;DHT22;48640;48.770;9.148;2023-03-05T00:22:43;4.90;89.20
62581;DHT22;48640;48.770;9.148;2023-03-05T00:25:10;4.90;88.90
62581;DHT22;48640;48.770;9.148;2023-03-05T00:27:36;4.90;89.10
62581;DHT22;48640;48.770;9.148;2023-03-05T00:30:06;4.90;89.10
62581;DHT22;48640;48.770;9.148;2023-03-05T00:32:33;5.00;89.10
62581;DHT22;48640;48.770;9.148;2023-03-05T00:35:00;5.00;89.00
62581;DHT22;48640;48.770;9.148;2023-03-05T00:37:27;5.00;88.90
62581;DHT22;48640;48.770;9.148;2023-03-05T00:39:54;5.00;89.00
62581;DHT22;48640;48.770;9.148;2023-03-05T00:42:21;4.90;89.20
62581;DHT22;48640;48.770;9.148;2023-03-05T00:44:47;4.80;89.20
62581;DHT22;48640;48.770;9.148;2023-03-05T00:47:16;4.80;89.50
62581;DHT22;48640;48.770;9.148;2023-03-05T00:49:43;4.80;89.30
62581;DHT22;48640;48.770;9.148;2023-03-05T00:52:10;4.80;89.50
62581;DHT22;48640;48.770;9.148;2023-03-05T00:54:37;4.80;89.20
62581;DHT22;48640;48.770;9.148;2023-03-05T00:57:04;4.80;89.10
62581;DHT22;48640;48.770;9.148;2023-03-05T00:59:31;4.80;89.50
62581;DHT22;48640;48.770;9.148;2023-03-05T01:01:58;4.80;89.50
62581;DHT22;48640;48.770;9.148;2023-03-05T01:04:26;4.80;89.90
62581;DHT22;48640;48.770;9.148;2023-03-05T01:06:53;4.80;90.10
62581;DHT22;48640;48.770;9.148;2023-03-05T01:09:19;4.90;90.30
62581;DHT22;48640;48.770;9.148;2023-03-05T01:11:49;4.80;90.20
62581;DHT22;48640;48.770;9.148;2023-03-05T01:14:16;4.90;90.10
62581;DHT22;48640;48.770;9.148;2023-03-05T01:16:44;4.90;90.10
62581;DHT22;48640;48.770;9.148;2023-03-05T01:19:11;4.90;90.30
62581;DHT22;48640;48.770;9.148;2023-03-05T01:21:39;4.80;90.20
62581;DHT22;48640;48.770;9.148;2023-03-05T01:24:06;4.80;90.40
62581;DHT22;48640;48.770;9.148;2023-03-05T01:26:34;4.80;90.40
62581;DHT22;48640;48.770;9.148;2023-03-05T01:29:01;4.80;90.40
62581;DHT22;48640;48.770;9.148;2023-03-05T01:31:28;4.80;90.30
62581;DHT22;48640;48.770;9.148;2023-03-05T01:33:54;4.80;90.30
62581;DHT22;48640;48.770;9.148;2023-03-05T01:36:22;4.80;90.40
62581;DHT22;48640;48.770;9.148;2023-03-05T01:38:51;4.90;90.40
62581;DHT22;48640;48.770;9.148;2023-03-05T01:41:19;4.90;90.00
62581;DHT22;48640;48.770;9.148;2023-03-05T01:43:47;5.00;89.70
62581;DHT22;48640;48.770;9.148;2023-03-05T01:46:32;4.90;89.90
62581;DHT22;48640;48.770;9.148;2023-03-05T01:49:14;4.80;90.00
62581;DHT22;48640;48.770;9.148;2023-03-05T01:51:50;4.80;90.10
62581;DHT22;48640;48.770;9.148;2023-03-05T01:54:23;4.90;90.10
62581;DHT22;48640;48.770;9.148;2023-03-05T01:56:52;4.90;90.10
62581;DHT22;48640;48.770;9.148;2023-03-05T01:59:22;4.80;90.10
62581;DHT22;48640;48.770;9.148;2023-03-05T02:01:52;4.80;90.30
62581;DHT22;48640;48.770;9.148;2023-03-05T02:04:21;4.80;90.30
62581;DHT22;48640;48.770;9.148;2023-03-05T02:06:49;4.90;90.40
62581;DHT22;48640;48.770;9.148;2023-03-05T02:09:15;4.80;90.40
62581;DHT22;48640;48.770;9.148;2023-03-05T02:11:44;4.90;90.50
62581;DHT22;48640;48.770;9.148;2023-03-05T02:14:11;4.80;90.50
62581;DHT22;48640;48.770;9.148;2023-03-05T02:16:38;4.80;90.60
62581;DHT22;48640;48.770;9.148;2023-03-05T02:19:07;4.80;90.70
62581;DHT22;48640;48.770;9.148;2023-03-05T02:21:39;4.80;91.00
62581;DHT22;48640;48.770;9.148;2023-03-05T02:24:08;4.90;91.30
62581;DHT22;48640;48.770;9.148;2023-03-05T02:26:35;4.90;91.30
62581;DHT22;48640;48.770;9.148;2023-03-05T02:29:03;4.90;91.30
62581;DHT22;48640;48.770;9.148;2023-03-05T02:31:30;5.00;91.30
62581;DHT22;48640;48.770;9.148;2023-03-05T02:33:57;5.00;91.10
62581;DHT22;48640;48.770;9.148;2023-03-05T02:36:24;5.00;91.20
62581;DHT22;48640;48.770;9.148;2023-03-05T02:38:52;4.90;91.40
62581;DHT22;48640;48.770;9.148;2023-03-05T02:41:21;5.00;91.60
62581;DHT22;48640;48.770;9.148;2023-03-05T02:43:48;4.90;91.50
62581;DHT22;48640;48.770;9.148;2023-03-05T02:46:15;4.90;91.70
62581;DHT22;48640;48.770;9.148;2023-03-05T02:48:42;4.70;92.30
62581;DHT22;48640;48.770;9.148;2023-03-05T02:51:09;4.70;92.70
62581;DHT22;48640;48.770;9.148;2023-03-05T02:53:36;4.60;92.90
62581;DHT22;48640;48.770;9.148;2023-03-05T02:56:04;4.60;93.30
62581;DHT22;48640;48.770;9.148;2023-03-05T02:58:31;4.60;93.40
62581;DHT22;48640;48.770;9.148;2023-03-05T03:00:58;4.50;93.40
62581;DHT22;48640;48.770;9.148;2023-03-05T03:03:25;4.40;93.50
62581;DHT22;48640;48.770;9.148;2023-03-05T03:05:51;4.50;93.80
62581;DHT22;48640;48.770;9.148;2023-03-05T03:08:18;4.50;93.70
62581;DHT22;48640;48.770;9.148;2023-03-05T03:10:45;4.60;93.70
62581;DHT22;48640;48.770;9.148;2023-03-05T03:13:13;4.70;93.60
62581;DHT22;48640;48.770;9.148;2023-03-05T03:15:40;4.80;93.50
62581;DHT22;48640;48.770;9.148;2023-03-05T03:18:07;4.80;93.40
62581;DHT22;48640;48.770;9.148;2023-03-05T03:20:36;4.80;93.70
62581;DHT22;48640;48.770;9.148;2023-03-05T03:23:04;4.80;93.60
62581;DHT22;48640;48.770;9.148;2023-03-05T03:25:31;4.80;93.90
62581;DHT22;48640;48.770;9.148;2023-03-05T03:27:58;4.90;94.10
62581;DHT22;48640;48.770;9.148;2023-03-05T03:30:26;4.90;94.10
62581;DHT22;48640;48.770;9.148;2023-03-05T03:32:53;5.00;94.50
62581;DHT22;48640;48.770;9.148;2023-03-05T03:35:20;4.90;94.40
62581;DHT22;48640;48.770;9.148;2023-03-05T03:37:46;4.90;94.70
62581;DHT22;48640;48.770;9.148;2023-03-05T03:40:14;4.90;95.20
62581;DHT22;48640;48.770;9.148;2023-03-05T03:42:40;4.90;95.40
62581;DHT22;48640;48.770;9.148;2023-03-05T03:45:08;4.90;95.50
62581;DHT22;48640;48.770;9.148;2023-03-05T03:47:36;4.80;95.50
62581;DHT22;48640;48.770;9.148;2023-03-05T03:50:04;4.80;95.70
62581;DHT22;48640;48.770;9.148;2023-03-05T03:52:31;4.90;95.80
62581;DHT22;48640;48.770;9.148;2023-03-05T03:54:58;4.90;95.90
62581;DHT22;48640;48.770;9.148;2023-03-05T03:57:27;4.90;95.90
62581;DHT22;48640;48.770;9.148;2023-03-05T03:59:54;4.90;96.00
62581;DHT22;48640;48.770;9.148;2023-03-05T04:02:21;4.90;95.90
62581;DHT22;48640;48.770;9.148;2023-03-05T04:04:49;4.80;95.70
62581;DHT22;48640;48.770;9.148;2023-03-05T04:07:16;4.80;96.00
62581;DHT22;48640;48.770;9.148;2023-03-05T04:09:43;4.80;96.00
62581;DHT22;48640;48.770;9.148;2023-03-05T04:12:10;4.80;96.20
62581;DHT22;48640;48.770;9.148;2023-03-05T04:14:42;4.80;96.20
62581;DHT22;48640;48.770;9.148;2023-03-05T04:17:09;4.90;96.00
62581;DHT22;48640;48.770;9.148;2023-03-05T04:19:36;4.90;95.40
62581;DHT22;48640;48.770;9.148;2023-03-05T04:22:04;4.90;95.50
62581;DHT22;48640;48.770;9.148;2023-03-05T04:24:31;4.90;95.30
62581;DHT22;48640;48.770;9.148;2023-03-05T04:26:58;4.80;95.40
62581;DHT22;48640;48.770;9.148;2023-03-05T04:29:24;4.80;95.50
62581;DHT22;48640;48.770;9.148;2023-03-05T04:31:51;4.80;95.20
62581;DHT22;48640;48.770;9.148;2023-03-05T04:34:18;4.70;95.30
62581;DHT22;48640;48.770;9.148;2023-03-05T04:36:45;4.70;95.00
62581;DHT22;48640;48.770;9.148;2023-03-05T04:39:13;4.70;95.10
62581;DHT22;48640;48.770;9.148;2023-03-05T04:41:40;4.70;95.10
62581;DHT22;48640;48.770;9.148;2023-03-05T04:44:06;4.60;95.10
62581;DHT22;48640;48.770;9.148;2023-03-05T04:46:33;4.50;95.50
62581;DHT22;48640;48.770;9.148;2023-03-05T04:49:00;4.60;95.50
62581;DHT22;48640;48.770;9.148;2023-03-05T04:51:27;4.70;95.70
62581;DHT22;48640;48.770;9.148;2023-03-05T04:53:54;4.80;95.40
62581;DHT22;48640;48.770;9.148;2023-03-05T04:56:22;4.80;95.10
62581;DHT22;48640;48.770;9.148;2023-03-05T04:58:49;4.80;94.70
62581;DHT22;48640;48.770;9.148;2023-03-05T05:01:16;4.80;94.90
62581;DHT22;48640;48.770;9.148;2023-03-05T05:03:43;4.80;94.90
62581;DHT22;48640;48.770;9.148;2023-03-05T05:06:10;4.90;94.70
62581;DHT22;48640;48.770;9.148;2023-03-05T05:08:37;4.80;94.50
62581;DHT22;48640;48.770;9.148;2023-03-05T05:11:06;4.80;94.60
62581;DHT22;48640;48.770;9.148;2023-03-05T05:13:34;4.80;94.60
62581;DHT22;48640;48.770;9.148;2023-03-05T05:16:01;4.80;94.70
62581;DHT22;48640;48.770;9.148;2023-03-05T05:18:31;4.90;94.60
62581;DHT22;48640;48.770;9.148;2023-03-05T05:20:58;4.90;94.60
62581;DHT22;48640;48.770;9.148;2023-03-05T05:23:25;4.80;94.50
62581;DHT22;48640;48.770;9.148;2023-03-05T05:25:56;4.80;94.70
62581;DHT22;48640;48.770;9.148;2023-03-05T05:28:23;4.70;94.90
62581;DHT22;48640;48.770;9.148;2023-03-05T05:30:51;4.70;95.00
62581;DHT22;48640;48.770;9.148;2023-03-05T05:33:18;4.80;95.00
62581;DHT22;48640;48.770;9.148;2023-03-05T05:35:45;4.80;94.60
62581;DHT22;48640;48.770;9.148;2023-03-05T05:38:12;4.80;94.50
62581;DHT22;48640;48.770;9.148;2023-03-05T05:40:39;4.80;94.60
62581;DHT22;48640;48.770;9.148;2023-03-05T05:43:06;4.80;94.60
62581;DHT22;48640;48.770;9.148;2023-03-05T05:45:33;4.80;94.50
62581;DHT22;48640;48.770;9.148;2023-03-05T05:48:01;4.80;94.50
62581;DHT22;48640;48.770;9.148;2023-03-05T05:50:28;4.80;94.40
62581;DHT22;48640;48.770;9.148;2023-03-05T05:52:55;4.80;94.40
62581;DHT22;48640;48.770;9.148;2023-03-05T05:55:22;4.80;94.30
62581;DHT22;48640;48.770;9.148;2023-03-05T05:57:48;4.80;94.20
62581;DHT22;48640;48.770;9.148;2023-03-05T06:00:16;4.80;94.20
62581;DHT22;48640;48.770;9.148;2023-03-05T06:02:43;4.80;94.30
62581;DHT22;48640;48.770;9.148;2023-03-05T06:05:13;4.80;94.00
62581;DHT22;48640;48.770;9.148;2023-03-05T06:07:40;4.80;94.00
62581;DHT22;48640;48.770;9.148;2023-03-05T06:10:08;4.80;93.90
62581;DHT22;48640;48.770;9.148;2023-03-05T06:12:35;4.80;94.10
62581;DHT22;48640;48.770;9.148;2023-03-05T06:15:03;4.80;93.90
62581;DHT22;48640;48.770;9.148;2023-03-05T06:17:30;4.80;94.00
62581;DHT22;48640;48.770;9.148;2023-03-05T06:19:56;4.80;94.10
62581;DHT22;48640;48.770;9.148;2023-03-05T06:22:25;4.80;94.10
62581;DHT22;48640;48.770;9.148;2023-03-05T06:24:52;4.80;94.00
62581;DHT22;48640;48.770;9.148;2023-03-05T06:27:18;4.80;94.00
62581;DHT22;48640;48.770;9.148;2023-03-05T06:29:45;4.90;94.00
62581;DHT22;48640;48.770;9.148;2023-03-05T06:32:12;4.90;93.90
62581;DHT22;48640;48.770;9.148;2023-03-05T06:34:39;4.90;93.80
62581;DHT22;48640;48.770;9.148;2023-03-05T06:37:05;5.00;93.70
62581;DHT22;48640;48.770;9.148;2023-03-05T06:39:33;5.00;93.60
62581;DHT22;48640;48.770;9.148;2023-03-05T06:42:00;5.00;93.50
62581;DHT22;48640;48.770;9.148;2023-03-05T06:44:27;5.00;93.70
62581;DHT22;48640;48.770;9.148;2023-03-05T06:46:54;5.00;93.40
62581;DHT22;48640;48.770;9.148;2023-03-05T06:49:20;5.00;93.40
62581;DHT22;48640;48.770;9.148;2023-03-05T06:51:47;5.00;93.40
62581;DHT22;48640;48.770;9.148;2023-03-05T06:54:16;5.00;93.50
62581;DHT22;48640;48.770;9.148;2023-03-05T06:56:45;5.00;93.70
62581;DHT22;48640;48.770;9.148;2023-03-05T06:59:13;5.00;93.40
62581;DHT22;48640;48.770;9.148;2023-03-05T07:01:40;5.00;93.60
62581;DHT22;48640;48.770;9.148;2023-03-05T07:04:07;5.00;93.10
62581;DHT22;48640;48.770;9.148;2023-03-05T07:06:35;5.00;93.30
62581;DHT22;48640;48.770;9.148;2023-03-05T07:09:05;5.00;93.20
62581;DHT22;48640;48.770;9.148;2023-03-05T07:11:32;5.00;93.20
62581;DHT22;48640;48.770;9.148;2023-03-05T07:14:01;5.10;93.10
62581;DHT22;48640;48.770;9.148;2023-03-05T07:16:30;5.10;92.90
62581;DHT22;48640;48.770;9.148;2023-03-05T07:18:58;5.20;93.00
62581;DHT22;48640;48.770;9.148;2023-03-05T07:21:28;5.20;93.10
62581;DHT22;48640;48.770;9.148;2023-03-05T07:23:57;5.20;92.90
62581;DHT22;48640;48.770;9.148;2023-03-05T07:26:25;5.30;92.50
62581;DHT22;48640;48.770;9.148;2023-03-05T07:28:52;5.30;92.50
62581;DHT22;48640;48.770;9.148;2023-03-05T07:31:22;5.30;92.40
62581;DHT22;48640;48.770;9.148;2023-03-05T07:33:51;5.20;92.20
62581;DHT22;48640;48.770;9.148;2023-03-05T07:36:18;5.20;92.20
62581;DHT22;48640;48.770;9.148;2023-03-05T07:38:45;5.20;92.20
62581;DHT22;48640;48.770;9.148;2023-03-05T07:41:14;5.20;92.30
62581;DHT22;48640;48.770;9.148;2023-03-05T07:43:44;5.20;92.40
62581;DHT22;48640;48.770;9.148;2023-03-05T07:46:11;5.10;92.50
62581;DHT22;48640;48.770;9.148;2023-03-05T07:48:41;5.10;92.60
62581;DHT22;48640;48.770;9.148;2023-03-05T07:51:11;5.30;92.50
62581;DHT22;48640;48.770;9.148;2023-03-05T07:53:39;5.40;92.10
62581;DHT22;48640;48.770;9.148;2023-03-05T07:56:06;5.40;91.90
62581;DHT22;48640;48.770;9.148;2023-03-05T07:58:33;5.40;92.10
62581;DHT22;48640;48.770;9.148;2023-03-05T08:01:00;5.50;91.70
62581;DHT22;48640;48.770;9.148;2023-03-05T08:03:27;5.40;91.80
62581;DHT22;48640;48.770;9.148;2023-03-05T08:05:55;5.30;91.80
62581;DHT22;48640;48.770;9.148;2023-03-05T08:08:22;5.40;91.90
62581;DHT22;48640;48.770;9.148;2023-03-05T08:10:48;5.40;91.90
62581;DHT22;48640;48.770;9.148;2023-03-05T08:13:15;5.30;91.70
62581;DHT22;48640;48.770;9.148;2023-03-05T08:15:42;5.40;91.60
62581;DHT22;48640;48.770;9.148;2023-03-05T08:18:09;5.30;91.50
62581;DHT22;48640;48.770;9.148;2023-03-05T08:20:35;5.40;91.50
62581;DHT22;48640;48.770;9.148;2023-03-05T08:23:04;5.40;91.30
62581;DHT22;48640;48.770;9.148;2023-03-05T08:25:30;5.40;91.30
62581;DHT22;48640;48.770;9.148;2023-03-05T08:27:57;5.50;91.40
62581;DHT22;48640;48.770;9.148;2023-03-05T08:30:24;5.50;91.20
62581;DHT22;48640;48.770;9.148;2023-03-05T08:32:52;5.50;91.10
62581;DHT22;48640;48.770;9.148;2023-03-05T08:35:19;5.40;90.90
62581;DHT22;48640;48.770;9.148;2023-03-05T08:37:47;5.50;91.00
62581;DHT22;48640;48.770;9.148;2023-03-05T08:40:15;5.60;91.00
62581;DHT22;48640;48.770;9.148;2023-03-05T08:42:44;5.70;91.00
62581;DHT22;48640;48.770;9.148;2023-03-05T08:45:11;5.70;90.90
62581;DHT22;48640;48.770;9.148;2023-03-05T08:47:38;5.90;90.60
62581;DHT22;48640;48.770;9.148;2023-03-05T08:50:05;5.90;90.30
62581;DHT22;48640;48.770;9.148;2023-03-05T08:52:32;5.90;90.20
62581;DHT22;48640;48.770;9.148;2023-03-05T08:54:59;6.00;90.10
62581;DHT22;48640;48.770;9.148;2023-03-05T08:57:27;6.00;89.60
62581;DHT22;48640;48.770;9.148;2023-03-05T08:59:54;6.00;89.30
62581;DHT22;48640;48.770;9.148;2023-03-05T09:02:21;6.00;89.30
62581;DHT22;48640;48.770;9.148;2023-03-05T09:04:47;6.10;89.50
62581;DHT22;48640;48.770;9.148;2023-03-05T09:07:14;6.10;89.00
62581;DHT22;48640;48.770;9.148;2023-03-05T09:09:41;6.10;88.60
62581;DHT22;48640;48.770;9.148;2023-03-05T09:12:08;6.10;88.40
62581;DHT22;48640;48.770;9.148;2023-03-05T09:14:39;5.90;88.30
62581;DHT22;48640;48.770;9.148;2023-03-05T09:17:06;6.00;88.60
62581;DHT22;48640;48.770;9.148;2023-03-05T09:19:33;6.10;88.60
62581;DHT22;48640;48.770;9.148;2023-03-05T09:22:00;6.20;88.40
62581;DHT22;48640;48.770;9.148;2023-03-05T09:24:27;6.30;88.20
62581;DHT22;48640;48.770;9.148;2023-03-05T09:26:57;6.40;88.00
62581;DHT22;48640;48.770;9.148;2023-03-05T09:29:24;6.50;86.40
62581;DHT22;48640;48.770;9.148;2023-03-05T09:31:53;6.50;85.60
62581;DHT22;48640;48.770;9.148;2023-03-05T09:34:20;6.50;85.70
62581;DHT22;48640;48.770;9.148;2023-03-05T09:36:47;6.40;86.10
62581;DHT22;48640;48.770;9.148;2023-03-05T09:39:14;6.50;86.20
62581;DHT22;48640;48.770;9.148;2023-03-05T09:42:03;6.50;86.00
62581;DHT22;48640;48.770;9.148;2023-03-05T09:44:38;6.40;86.40
62581;DHT22;48640;48.770;9.148;2023-03-05T09:47:20;6.30;86.40
62581;DHT22;48640;48.770;9.148;2023-03-05T09:49:56;6.10;87.20
62581;DHT22;48640;48.770;9.148;2023-03-05T09:52:32;6.30;87.10
62581;DHT22;48640;48.770;9.148;2023-03-05T09:55:00;6.30;86.70
62581;DHT22;48640;48.770;9.148;2023-03-05T09:57:34;6.40;86.80
62581;DHT22;48640;48.770;9.148;2023-03-05T10:00:10;6.30;87.10
62581;DHT22;48640;48.770;9.148;2023-03-05T10:02:47;6.20;86.60
62581;DHT22;48640;48.770;9.148;2023-03-05T10:05:18;6.40;87.10
62581;DHT22;48640;48.770;9.148;2023-03-05T10:07:52;6.70;86.20
62581;DHT22;48640;48.770;9.148;2023-03-05T10:10:24;6.70;85.10
62581;DHT22;48640;48.770;9.148;2023-03-05T10:12:54;6.80;84.20
62581;DHT22;48640;48.770;9.148;2023-03-05T10:15:27;6.80;83.90
62581;DHT22;48640;48.770;9.148;2023-03-05T10:18:10;6.80;83.70
62581;DHT22;48640;48.770;9.148;2023-03-05T10:20:52;6.80;83.70
62581;DHT22;48640;48.770;9.148;2023-03-05T10:23:29;6.60;84.00
62581;DHT22;48640;48.770;9.148;2023-03-05T10:26:03;6.70;84.20
62581;DHT22;48640;48.770;9.148;2023-03-05T10:28:36;6.80;83.50
62581;DHT22;48640;48.770;9.148;2023-03-05T10:31:19;6.80;84.00
62581;DHT22;48640;48.770;9.148;2023-03-05T10:34:00;6.80;83.60
62581;DHT22;48640;48.770;9.148;2023-03-05T10:36:41;6.90;83.30
62581;DHT22;48640;48.770;9.148;2023-03-05T10:39:39;6.70;82.60
62581;DHT22;48640;48.770;9.148;2023-03-05T10:42:15;6.90;83.20
62581;DHT22;48640;48.770;9.148;2023-03-05T10:44:47;6.80;82.70
62581;DHT22;48640;48.770;9.148;2023-03-05T10:47:21;6.70;82.20
62581;DHT22;48640;48.770;9.148;2023-03-05T10:49:52;6.60;82.40
62581;DHT22;48640;48.770;9.148;2023-03-05T10:52:21;6.40;83.60
62581;DHT22;48640;48.770;9.148;2023-03-05T10:54:50;6.30;84.00
62581;DHT22;48640;48.770;9.148;2023-03-05T10:57:20;6.20;84.50
62581;DHT22;48640;48.770;9.148;2023-03-05T10:59:49;6.30;84.80
62581;DHT22;48640;48.770;9.148;2023-03-05T11:02:17;6.40;84.80
62581;DHT22;48640;48.770;9.148;2023-03-05T11:04:45;6.40;85.10
62581;DHT22;48640;48.770;9.148;2023-03-05T11:07:29;6.40;84.70
62581;DHT22;48640;48.770;9.148;2023-03-05T11:10:13;6.30;85.00
62581;DHT22;48640;48.770;9.148;2023-03-05T11:12:40;6.20;85.70
62581;DHT22;48640;48.770;9.148;2023-03-05T11:15:24;6.20;86.60
62581;DHT22;48640;48.770;9.148;2023-03-05T11:18:14;6.30;86.20
62581;DHT22;48640;48.770;9.148;2023-03-05T11:20:42;6.40;85.90
62581;DHT22;48640;48.770;9.148;2023-03-05T11:23:12;6.50;85.80
62581;DHT22;48640;48.770;9.148;2023-03-05T11:25:52;6.60;85.30
62581;DHT22;48640;48.770;9.148;2023-03-05T11:28:22;6.60;84.90
62581;DHT22;48640;48.770;9.148;2023-03-05T11:30:58;6.40;85.30
62581;DHT22;48640;48.770;9.148;2023-03-05T11:33:26;6.10;86.10
62581;DHT22;48640;48.770;9.148;2023-03-05T11:36:09;6.00;87.00
62581;DHT22;48640;48.770;9.148;2023-03-05T11:38:47;5.80;87.80
62581;DHT22;48640;48.770;9.148;2023-03-05T11:41:16;5.80;88.30
62581;DHT22;48640;48.770;9.148;2023-03-05T11:43:44;5.70;89.10
62581;DHT22;48640;48.770;9.148;2023-03-05T11:46:11;5.60;89.80
62581;DHT22;48640;48.770;9.148;2023-03-05T11:48:40;5.70;90.10
62581;DHT22;48640;48.770;9.148;2023-03-05T11:51:25;5.80;90.00
62581;DHT22;48640;48.770;9.148;2023-03-05T11:53:56;5.70;90.20
62581;DHT22;48640;48.770;9.148;2023-03-05T11:56:26;5.80;90.10
62581;DHT22;48640;48.770;9.148;2023-03-05T11:58:57;5.80;89.50
62581;DHT22;48640;48.770;9.148;2023-03-05T12:01:28;5.80;89.40
62581;DHT22;48640;48.770;9.148;2023-03-05T12:03:57;5.90;89.20
62581;DHT22;48640;48.770;9.148;2023-03-05T12:06:28;6.00;88.90
62581;DHT22;48640;48.770;9.148;2023-03-05T12:08:59;6.00;87.60
62581;DHT22;48640;48.770;9.148;2023-03-05T12:11:30;6.20;86.60
62581;DHT22;48640;48.770;9.148;2023-03-05T12:14:00;6.20;86.30
62581;DHT22;48640;48.770;9.148;2023-03-05T12:16:33;6.00;86.00
62581;DHT22;48640;48.770;9.148;2023-03-05T12:19:28;6.00;86.10
62581;DHT22;48640;48.770;9.148;2023-03-05T12:21:58;6.10;84.90
62581;DHT22;48640;48.770;9.148;2023-03-05T12:24:38;6.10;84.80
62581;DHT22;48640;48.770;9.148;2023-03-05T12:27:11;5.90;84.80
62581;DHT22;48640;48.770;9.148;2023-03-05T12:29:47;5.80;85.20
62581;DHT22;48640;48.770;9.148;2023-03-05T12:35:34;5.90;84.20
62581;DHT22;48640;48.770;9.148;2023-03-05T12:38:16;5.70;83.80
62581;DHT22;48640;48.770;9.148;2023-03-05T12:40:45;5.80;83.60
62581;DHT22;48640;48.770;9.148;2023-03-05T12:43:29;5.80;83.10
62581;DHT22;48640;48.770;9.148;2023-03-05T12:46:23;6.00;83.00
62581;DHT22;48640;48.770;9.148;2023-03-05T12:48:51;6.00;82.70
62581;DHT22;48640;48.770;9.148;2023-03-05T12:51:29;5.90;83.10
62581;DHT22;48640;48.770;9.148;2023-03-05T12:53:56;5.90;83.90
62581;DHT22;48640;48.770;9.148;2023-03-05T12:56:29;5.90;83.70
62581;DHT22;48640;48.770;9.148;2023-03-05T12:58:58;5.90;83.60
62581;DHT22;48640;48.770;9.148;2023-03-05T13:01:35;6.00;83.20
62581;DHT22;48640;48.770;9.148;2023-03-05T13:04:05;6.10;83.10
62581;DHT22;48640;48.770;9.148;2023-03-05T13:06:37;6.30;82.50
62581;DHT22;48640;48.770;9.148;2023-03-05T13:09:07;6.40;81.60
62581;DHT22;48640;48.770;9.148;2023-03-05T13:11:43;6.50;81.40
62581;DHT22;48640;48.770;9.148;2023-03-05T13:14:24;6.60;81.30
62581;DHT22;48640;48.770;9.148;2023-03-05T13:16:53;6.60;80.90
62581;DHT22;48640;48.770;9.148;2023-03-05T13:19:20;6.70;80.60
62581;DHT22;48640;48.770;9.148;2023-03-05T13:21:57;6.70;80.40
62581;DHT22;48640;48.770;9.148;2023-03-05T13:24:24;6.70;80.50
62581;DHT22;48640;48.770;9.148;2023-03-05T13:26:52;6.70;80.00
62581;DHT22;48640;48.770;9.148;2023-03-05T13:29:20;6.60;80.20
62581;DHT22;48640;48.770;9.148;2023-03-05T13:31:50;6.50;80.70
62581;DHT22;48640;48.770;9.148;2023-03-05T13:34:20;6.30;81.00
62581;DHT22;48640;48.770;9.148;2023-03-05T13:36:52;6.20;82.40
62581;DHT22;48640;48.770;9.148;2023-03-05T13:39:23;6.20;82.80
62581;DHT22;48640;48.770;9.148;2023-03-05T13:41:57;6.40;82.10
62581;DHT22;48640;48.770;9.148;2023-03-05T13:44:25;6.40;82.30
62581;DHT22;48640;48.770;9.148;2023-03-05T13:46:52;6.30;82.00
62581;DHT22;48640;48.770;9.148;2023-03-05T13:49:21;6.20;82.20
62581;DHT22;48640;48.770;9.148;2023-03-05T13:51:49;6.10;82.50
62581;DHT22;48640;48.770;9.148;2023-03-05T13:54:18;6.10;83.30
62581;DHT22;48640;48.770;9.148;2023-03-05T13:56:50;6.20;82.40
62581;DHT22;48640;48.770;9.148;2023-03-05T13:59:19;6.20;82.30
62581;DHT22;48640;48.770;9.148;2023-03-05T14:01:47;6.20;82.30
62581;DHT22;48640;48.770;9.148;2023-03-05T14:04:18;6.20;82.30
62581;DHT22;48640;48.770;9.148;2023-03-05T14:06:48;6.30;82.30
62581;DHT22;48640;48.770;9.148;2023-03-05T14:09:18;6.30;81.60
62581;DHT22;48640;48.770;9.148;2023-03-05T14:11:50;6.30;81.60
62581;DHT22;48640;48.770;9.148;2023-03-05T14:14:20;6.40;81.70
62581;DHT22;48640;48.770;9.148;2023-03-05T14:16:47;6.50;81.50
62581;DHT22;48640;48.770;9.148;2023-03-05T14:19:31;6.40;80.70
62581;DHT22;48640;48.770;9.148;2023-03-05T14:21:59;6.40;80.70
62581;DHT22;48640;48.770;9.148;2023-03-05T14:24:26;6.40;81.40
62581;DHT22;48640;48.770;9.148;2023-03-05T14:26:56;6.30;80.90
62581;DHT22;48640;48.770;9.148;2023-03-05T14:29:26;6.40;81.10
62581;DHT22;48640;48.770;9.148;2023-03-05T14:31:55;6.30;81.10
62581;DHT22;48640;48.770;9.148;2023-03-05T14:34:25;6.20;81.20
62581;DHT22;48640;48.770;9.148;2023-03-05T14:36:55;6.10;81.80
62581;DHT22;48640;48.770;9.148;2023-03-05T14:39:27;6.10;82.20
62581;DHT22;48640;48.770;9.148;2023-03-05T14:44:38;5.80;82.90
62581;DHT22;48640;48.770;9.148;2023-03-05T14:47:05;5.80;84.00
62581;DHT22;48640;48.770;9.148;2023-03-05T14:49:32;5.80;84.00
62581;DHT22;48640;48.770;9.148;2023-03-05T14:51:59;5.80;83.50
62581;DHT22;48640;48.770;9.148;2023-03-05T14:54:26;5.70;83.60
62581;DHT22;48640;48.770;9.148;2023-03-05T14:56:53;5.70;83.50
62581;DHT22;48640;48.770;9.148;2023-03-05T14:59:20;5.70;84.00
62581;DHT22;48640;48.770;9.148;2023-03-05T15:01:48;5.70;84.10
62581;DHT22;48640;48.770;9.148;2023-03-05T15:04:15;5.80;83.90
62581;DHT22;48640;48.770;9.148;2023-03-05T15:06:43;5.80;83.70
62581;DHT22;48640;48.770;9.148;2023-03-05T15:09:15;5.60;84.60
62581;DHT22;48640;48.770;9.148;2023-03-05T15:11:42;5.40;85.80
62581;DHT22;48640;48.770;9.148;2023-03-05T15:14:09;5.50;86.50
62581;DHT22;48640;48.770;9.148;2023-03-05T15:16:40;5.40;86.90
62581;DHT22;48640;48.770;9.148;2023-03-05T15:19:10;5.60;86.50
62581;DHT22;48640;48.770;9.148;2023-03-05T15:21:37;5.60;86.00
62581;DHT22;48640;48.770;9.148;2023-03-05T15:24:04;5.60;85.90
62581;DHT22;48640;48.770;9.148;2023-03-05T15:26:31;5.40;86.30
62581;DHT22;48640;48.770;9.148;2023-03-05T15:28:58;5.40;86.50
62581;DHT22;48640;48.770;9.148;2023-03-05T15:31:25;5.50;86.60
62581;DHT22;48640;48.770;9.148;2023-03-05T15:33:53;5.60;86.00
62581;DHT22;48640;48.770;9.148;2023-03-05T15:36:21;5.60;86.40
62581;DHT22;48640;48.770;9.148;2023-03-05T15:38:47;5.60;86.50
62581;DHT22;48640;48.770;9.148;2023-03-05T15:41:14;5.60;86.00
62581;DHT22;48640;48.770;9.148;2023-03-05T15:43:42;5.70;86.30
62581;DHT22;48640;48.770;9.148;2023-03-05T15:46:09;5.70;86.00
62581;DHT22;48640;48.770;9.148;2023-03-05T15:48:35;5.70;86.10
62581;DHT22;48640;48.770;9.148;2023-03-05T15:51:05;5.70;86.40
62581;DHT22;48640;48.770;9.148;2023-03-05T15:53:33;5.80;87.60
62581;DHT22;48640;48.770;9.148;2023-03-05T15:56:00;5.60;86.20
62581;DHT22;48640;48.770;9.148;2023-03-05T15:58:27;5.60;86.60
62581;DHT22;48640;48.770;9.148;2023-03-05T16:00:54;5.50;87.00
62581;DHT22;48640;48.770;9.148;2023-03-05T16:03:20;5.40;87.70